sensor_id;sensor_type;location;lat;lon;timestamp;pressure;altitude;pressure_sealevel;temperature;humidity
59110;BME280;44895;47.438;18.978;2023-02-18T00:02:39;100365.69;;;10.35;100.00
59110;BME280;44895;47.438;18.978;2023-02-18T00:05:43;100370.41;;;10.24;100.00
59110;BME280;44895;47.438;18.978;2023-02-18T00:08:47;100373.88;;;10.29;100.00
59110;BME280;44895;47.438;18.978;2023-02-18T00:11:51;100370.03;;;10.36;100.00
59110;BME280;44895;47.438;18.978;2023-02-18T00:14:55;100374.50;;;10.21;100.00
59110;BME280;44895;47.438;18.978;2023-02-18T00:17:59;100365.47;;;10.31;100.00
59110;BME280;44895;47.438;18.978;2023-02-18T00:21:05;100352.44;;;10.28;100.00
59110;BME280;44895;47.438;18.978;2023-02-18T00:24:12;100363.72;;;10.46;100.00
59110;BME280;44895;47.438;18.978;2023-02-18T00:27:17;100348.81;;;10.43;100.00
59110;BME280;44895;47.438;18.978;2023-02-18T00:30:21;100341.38;;;10.54;100.00
59110;BME280;44895;47.438;18.978;2023-02-18T00:33:25;100345.38;;;10.62;100.00
59110;BME280;44895;47.438;18.978;2023-02-18T00:36:29;100347.38;;;10.51;100.00
59110;BME280;44895;47.438;18.978;2023-02-18T00:39:33;100339.38;;;10.65;100.00
59110;BME280;44895;47.438;18.978;2023-02-18T00:42:37;100339.72;;;10.58;100.00
59110;BME280;44895;47.438;18.978;2023-02-18T00:45:41;100338.03;;;10.62;100.00
59110;BME280;44895;47.438;18.978;2023-02-18T00:48:44;100325.16;;;10.73;100.00
59110;BME280;44895;47.438;18.978;2023-02-18T00:51:48;100333.03;;;10.74;100.00
59110;BME280;44895;47.438;18.978;2023-02-18T00:54:52;100326.88;;;10.64;100.00
59110;BME280;44895;47.438;18.978;2023-02-18T00:57:56;100318.84;;;10.77;100.00
59110;BME280;44895;47.438;18.978;2023-02-18T01:01:00;100318.56;;;10.79;100.00
59110;BME280;44895;47.438;18.978;2023-02-18T01:04:04;100312.72;;;10.91;100.00
59110;BME280;44895;47.438;18.978;2023-02-18T01:07:08;100302.19;;;11.08;100.00
59110;BME280;44895;47.438;18.978;2023-02-18T01:10:13;100312.31;;;11.03;100.00
59110;BME280;44895;47.438;18.978;2023-02-18T01:13:17;100301.81;;;11.15;100.00
59110;BME280;44895;47.438;18.978;2023-02-18T01:16:21;100309.44;;;11.13;100.00
59110;BME280;44895;47.438;18.978;2023-02-18T01:19:24;100297.78;;;11.32;100.00
59110;BME280;44895;47.438;18.978;2023-02-18T01:22:28;100301.31;;;11.32;100.00
59110;BME280;44895;47.438;18.978;2023-02-18T01:25:32;100295.16;;;11.26;100.00
59110;BME280;44895;47.438;18.978;2023-02-18T01:28:39;100293.81;;;11.24;100.00
59110;BME280;44895;47.438;18.978;2023-02-18T01:31:44;100292.66;;;11.30;100.00
59110;BME280;44895;47.438;18.978;2023-02-18T01:34:48;100278.38;;;11.19;100.00
59110;BME280;44895;47.438;18.978;2023-02-18T01:37:52;100283.53;;;11.21;100.00
59110;BME280;44895;47.438;18.978;2023-02-18T01:40:55;100277.81;;;11.22;100.00
59110;BME280;44895;47.438;18.978;2023-02-18T01:44:45;100274.56;;;11.20;100.00
59110;BME280;44895;47.438;18.978;2023-02-18T01:47:42;100274.56;;;11.20;100.00
59110;BME280;44895;47.438;18.978;2023-02-18T01:51:09;100265.69;;;11.15;100.00
59110;BME280;44895;47.438;18.978;2023-02-18T01:54:18;100273.97;;;11.23;100.00
59110;BME280;44895;47.438;18.978;2023-02-18T01:57:30;100261.66;;;11.31;100.00
59110;BME280;44895;47.438;18.978;2023-02-18T02:00:34;100271.69;;;11.31;100.00
59110;BME280;44895;47.438;18.978;2023-02-18T02:03:39;100271.31;;;11.37;100.00
59110;BME280;44895;47.438;18.978;2023-02-18T02:06:43;100264.63;;;11.49;100.00
59110;BME280;44895;47.438;18.978;2023-02-18T02:09:48;100261.78;;;11.92;100.00
59110;BME280;44895;47.438;18.978;2023-02-18T02:13:14;100259.06;;;12.25;100.00
59110;BME280;44895;47.438;18.978;2023-02-18T02:16:31;100250.28;;;12.28;100.00
59110;BME280;44895;47.438;18.978;2023-02-18T02:33:14;100237.50;;;12.56;100.00
59110;BME280;44895;47.438;18.978;2023-02-18T02:36:39;100230.03;;;12.48;100.00
59110;BME280;44895;47.438;18.978;2023-02-18T02:40:00;100222.06;;;12.52;100.00
59110;BME280;44895;47.438;18.978;2023-02-18T02:43:20;100235.97;;;12.64;100.00
59110;BME280;44895;47.438;18.978;2023-02-18T02:46:40;100246.78;;;12.69;100.00
59110;BME280;44895;47.438;18.978;2023-02-18T02:53:02;100247.56;;;12.70;100.00
59110;BME280;44895;47.438;18.978;2023-02-18T02:56:21;100236.25;;;12.77;100.00
59110;BME280;44895;47.438;18.978;2023-02-18T02:59:28;100237.50;;;12.56;100.00
59110;BME280;44895;47.438;18.978;2023-02-18T03:19:39;100270.56;;;12.50;100.00
59110;BME280;44895;47.438;18.978;2023-02-18T03:22:48;100269.59;;;12.60;100.00
59110;BME280;44895;47.438;18.978;2023-02-18T03:25:55;100268.47;;;12.47;100.00
59110;BME280;44895;47.438;18.978;2023-02-18T03:29:02;100261.19;;;12.70;100.00
59110;BME280;44895;47.438;18.978;2023-02-18T03:32:09;100271.19;;;12.61;100.00
59110;BME280;44895;47.438;18.978;2023-02-18T03:35:17;100262.31;;;12.55;100.00
59110;BME280;44895;47.438;18.978;2023-02-18T03:41:50;100259.09;;;12.39;100.00
59110;BME280;44895;47.438;18.978;2023-02-18T03:44:53;100275.22;;;12.35;100.00
59110;BME280;44895;47.438;18.978;2023-02-18T03:47:59;100272.16;;;12.23;100.00
59110;BME280;44895;47.438;18.978;2023-02-18T03:51:03;100271.06;;;12.24;100.00
59110;BME280;44895;47.438;18.978;2023-02-18T03:54:07;100287.72;;;12.22;100.00
59110;BME280;44895;47.438;18.978;2023-02-18T03:57:11;100284.59;;;12.29;100.00
59110;BME280;44895;47.438;18.978;2023-02-18T04:00:16;100304.75;;;12.28;100.00
59110;BME280;44895;47.438;18.978;2023-02-18T04:03:19;100297.75;;;12.08;100.00
59110;BME280;44895;47.438;18.978;2023-02-18T04:06:24;100308.63;;;12.08;100.00
59110;BME280;44895;47.438;18.978;2023-02-18T04:09:27;100317.41;;;12.05;100.00
59110;BME280;44895;47.438;18.978;2023-02-18T04:12:31;100302.56;;;11.97;100.00
59110;BME280;44895;47.438;18.978;2023-02-18T04:15:35;100318.66;;;11.94;100.00
59110;BME280;44895;47.438;18.978;2023-02-18T04:18:39;100314.09;;;11.89;100.00
59110;BME280;44895;47.438;18.978;2023-02-18T04:21:43;100315.56;;;11.81;100.00
59110;BME280;44895;47.438;18.978;2023-02-18T04:24:47;100319.53;;;11.89;100.00
59110;BME280;44895;47.438;18.978;2023-02-18T04:27:50;100325.56;;;11.86;100.00
59110;BME280;44895;47.438;18.978;2023-02-18T04:30:54;100322.72;;;11.77;100.00
59110;BME280;44895;47.438;18.978;2023-02-18T04:33:58;100315.25;;;11.83;100.00
59110;BME280;44895;47.438;18.978;2023-02-18T04:37:02;100324.03;;;11.80;100.00
59110;BME280;44895;47.438;18.978;2023-02-18T04:40:06;100312.06;;;11.81;100.00
59110;BME280;44895;47.438;18.978;2023-02-18T04:43:10;100316.66;;;11.80;100.00
59110;BME280;44895;47.438;18.978;2023-02-18T04:46:13;100330.78;;;11.82;100.00
59110;BME280;44895;47.438;18.978;2023-02-18T04:49:17;100320.88;;;11.72;100.00
59110;BME280;44895;47.438;18.978;2023-02-18T04:52:21;100328.22;;;11.72;100.00
59110;BME280;44895;47.438;18.978;2023-02-18T04:55:24;100335.94;;;11.65;100.00
59110;BME280;44895;47.438;18.978;2023-02-18T04:58:28;100333.00;;;11.61;100.00
59110;BME280;44895;47.438;18.978;2023-02-18T05:01:32;100330.44;;;11.70;100.00
59110;BME280;44895;47.438;18.978;2023-02-18T05:04:36;100337.03;;;11.64;100.00
59110;BME280;44895;47.438;18.978;2023-02-18T05:07:39;100336.03;;;11.59;100.00
59110;BME280;44895;47.438;18.978;2023-02-18T05:10:44;100330.81;;;11.63;100.00
59110;BME280;44895;47.438;18.978;2023-02-18T05:13:48;100347.94;;;11.64;100.00
59110;BME280;44895;47.438;18.978;2023-02-18T05:16:52;100352.13;;;11.56;100.00
59110;BME280;44895;47.438;18.978;2023-02-18T05:19:56;100357.00;;;11.59;100.00
59110;BME280;44895;47.438;18.978;2023-02-18T05:22:59;100355.38;;;11.58;100.00
59110;BME280;44895;47.438;18.978;2023-02-18T05:26:03;100360.28;;;11.56;100.00
59110;BME280;44895;47.438;18.978;2023-02-18T05:29:07;100371.09;;;11.61;100.00
59110;BME280;44895;47.438;18.978;2023-02-18T05:32:11;100381.97;;;11.61;100.00
59110;BME280;44895;47.438;18.978;2023-02-18T05:35:14;100383.66;;;11.57;100.00
59110;BME280;44895;47.438;18.978;2023-02-18T05:38:18;100391.13;;;11.46;100.00
59110;BME280;44895;47.438;18.978;2023-02-18T05:41:22;100386.81;;;11.45;100.00
59110;BME280;44895;47.438;18.978;2023-02-18T05:44:26;100392.47;;;11.49;100.00
59110;BME280;44895;47.438;18.978;2023-02-18T05:47:32;100394.16;;;11.45;100.00
59110;BME280;44895;47.438;18.978;2023-02-18T05:50:36;100390.41;;;11.40;100.00
59110;BME280;44895;47.438;18.978;2023-02-18T05:53:40;100393.38;;;11.44;100.00
59110;BME280;44895;47.438;18.978;2023-02-18T05:56:43;100409.44;;;11.40;100.00
59110;BME280;44895;47.438;18.978;2023-02-18T05:59:47;100412.22;;;11.35;100.00
59110;BME280;44895;47.438;18.978;2023-02-18T06:02:50;100443.81;;;11.31;100.00
59110;BME280;44895;47.438;18.978;2023-02-18T06:05:54;100443.19;;;11.15;100.00
59110;BME280;44895;47.438;18.978;2023-02-18T06:08:58;100444.25;;;10.90;100.00
59110;BME280;44895;47.438;18.978;2023-02-18T06:12:02;100444.91;;;10.76;100.00
59110;BME280;44895;47.438;18.978;2023-02-18T06:15:06;100446.53;;;10.77;100.00
59110;BME280;44895;47.438;18.978;2023-02-18T06:18:10;100444.84;;;10.82;100.00
59110;BME280;44895;47.438;18.978;2023-02-18T06:21:14;100454.88;;;10.86;100.00
59110;BME280;44895;47.438;18.978;2023-02-18T06:24:18;100454.19;;;10.75;100.00
59110;BME280;44895;47.438;18.978;2023-02-18T06:27:21;100456.25;;;10.84;100.00
59110;BME280;44895;47.438;18.978;2023-02-18T06:30:25;100460.13;;;10.77;100.00
59110;BME280;44895;47.438;18.978;2023-02-18T06:33:29;100472.56;;;10.84;100.00
59110;BME280;44895;47.438;18.978;2023-02-18T06:36:32;100484.06;;;10.75;100.00
59110;BME280;44895;47.438;18.978;2023-02-18T06:39:37;100466.53;;;10.57;100.00
59110;BME280;44895;47.438;18.978;2023-02-18T06:42:41;100465.41;;;10.64;100.00
59110;BME280;44895;47.438;18.978;2023-02-18T06:45:45;100458.91;;;10.59;100.00
59110;BME280;44895;47.438;18.978;2023-02-18T06:48:49;100466.97;;;10.70;100.00
59110;BME280;44895;47.438;18.978;2023-02-18T06:51:53;100466.78;;;10.90;100.00
59110;BME280;44895;47.438;18.978;2023-02-18T06:54:56;100472.66;;;11.03;100.00
59110;BME280;44895;47.438;18.978;2023-02-18T06:58:00;100474.44;;;10.88;100.00
59110;BME280;44895;47.438;18.978;2023-02-18T07:01:04;100474.69;;;10.92;100.00
59110;BME280;44895;47.438;18.978;2023-02-18T07:04:07;100470.44;;;10.81;100.00
59110;BME280;44895;47.438;18.978;2023-02-18T07:07:11;100470.13;;;10.82;100.00
59110;BME280;44895;47.438;18.978;2023-02-18T07:10:15;100479.53;;;10.95;100.00
59110;BME280;44895;47.438;18.978;2023-02-18T07:13:18;100476.91;;;10.85;100.00
59110;BME280;44895;47.438;18.978;2023-02-18T07:16:22;100474.44;;;10.88;100.00
59110;BME280;44895;47.438;18.978;2023-02-18T07:19:26;100473.91;;;10.86;100.00
59110;BME280;44895;47.438;18.978;2023-02-18T07:22:29;100480.31;;;10.96;100.00
59110;BME280;44895;47.438;18.978;2023-02-18T07:25:33;100474.34;;;10.99;100.00
59110;BME280;44895;47.438;18.978;2023-02-18T07:28:38;100480.50;;;11.04;100.00
59110;BME280;44895;47.438;18.978;2023-02-18T07:31:41;100475.97;;;11.00;100.00
59110;BME280;44895;47.438;18.978;2023-02-18T07:34:45;100473.44;;;11.08;100.00
59110;BME280;44895;47.438;18.978;2023-02-18T07:37:49;100469.13;;;11.02;100.00
59110;BME280;44895;47.438;18.978;2023-02-18T07:40:54;100458.72;;;11.09;100.00
59110;BME280;44895;47.438;18.978;2023-02-18T07:43:57;100453.19;;;11.20;100.00
59110;BME280;44895;47.438;18.978;2023-02-18T07:47:02;100461.28;;;11.25;100.00
59110;BME280;44895;47.438;18.978;2023-02-18T07:50:07;100456.84;;;11.34;100.00
59110;BME280;44895;47.438;18.978;2023-02-18T07:53:13;100450.91;;;11.51;100.00
59110;BME280;44895;47.438;18.978;2023-02-18T07:56:17;100461.28;;;11.49;100.00
59110;BME280;44895;47.438;18.978;2023-02-18T07:59:20;100458.81;;;11.53;100.00
59110;BME280;44895;47.438;18.978;2023-02-18T08:02:24;100465.22;;;11.62;100.00
59110;BME280;44895;47.438;18.978;2023-02-18T08:05:28;100466.84;;;11.63;100.00
59110;BME280;44895;47.438;18.978;2023-02-18T08:08:32;100456.38;;;11.70;100.00
59110;BME280;44895;47.438;18.978;2023-02-18T08:11:36;100453.88;;;11.74;100.00
59110;BME280;44895;47.438;18.978;2023-02-18T08:14:40;100447.34;;;11.75;100.00
59110;BME280;44895;47.438;18.978;2023-02-18T08:17:44;100456.09;;;11.96;100.00
59110;BME280;44895;47.438;18.978;2023-02-18T08:20:49;100436.97;;;12.01;100.00
59110;BME280;44895;47.438;18.978;2023-02-18T08:23:56;100454.84;;;12.27;100.00
59110;BME280;44895;47.438;18.978;2023-02-18T08:27:00;100467.69;;;12.21;100.00
59110;BME280;44895;47.438;18.978;2023-02-18T08:30:05;100459.00;;;12.38;100.00
59110;BME280;44895;47.438;18.978;2023-02-18T08:33:09;100458.19;;;12.37;100.00
59110;BME280;44895;47.438;18.978;2023-02-18T08:36:13;100461.44;;;12.39;100.00
59110;BME280;44895;47.438;18.978;2023-02-18T08:39:17;100460.16;;;12.51;100.00
59110;BME280;44895;47.438;18.978;2023-02-18T08:42:21;100466.19;;;12.67;100.00
59110;BME280;44895;47.438;18.978;2023-02-18T08:45:25;100459.72;;;12.77;100.00
59110;BME280;44895;47.438;18.978;2023-02-18T08:48:29;100456.91;;;12.82;100.00
59110;BME280;44895;47.438;18.978;2023-02-18T08:51:32;100454.72;;;12.98;100.00
59110;BME280;44895;47.438;18.978;2023-02-18T08:54:37;100444.94;;;12.97;100.00
59110;BME280;44895;47.438;18.978;2023-02-18T08:57:41;100449.69;;;13.05;100.00
59110;BME280;44895;47.438;18.978;2023-02-18T09:00:44;100453.78;;;13.63;100.00
59110;BME280;44895;47.438;18.978;2023-02-18T09:03:48;100456.81;;;13.48;100.00
59110;BME280;44895;47.438;18.978;2023-02-18T09:06:52;100465.47;;;13.22;100.00
59110;BME280;44895;47.438;18.978;2023-02-18T09:09:56;100459.75;;;12.91;100.00
59110;BME280;44895;47.438;18.978;2023-02-18T09:12:59;100464.34;;;12.62;100.00
59110;BME280;44895;47.438;18.978;2023-02-18T09:16:06;100455.94;;;12.59;100.00
59110;BME280;44895;47.438;18.978;2023-02-18T09:19:10;100449.63;;;12.63;100.00
59110;BME280;44895;47.438;18.978;2023-02-18T09:22:14;100441.78;;;12.76;100.00
59110;BME280;44895;47.438;18.978;2023-02-18T09:25:18;100441.78;;;12.76;100.00
59110;BME280;44895;47.438;18.978;2023-02-18T09:28:22;100436.25;;;12.81;100.00
59110;BME280;44895;47.438;18.978;2023-02-18T09:31:27;100441.28;;;12.87;100.00
59110;BME280;44895;47.438;18.978;2023-02-18T09:34:31;100438.69;;;13.10;100.00
59110;BME280;44895;47.438;18.978;2023-02-18T09:37:35;100437.81;;;13.29;100.00
59110;BME280;44895;47.438;18.978;2023-02-18T09:40:43;100442.34;;;13.33;100.00
59110;BME280;44895;47.438;18.978;2023-02-18T09:43:50;100437.72;;;13.48;100.00
59110;BME280;44895;47.438;18.978;2023-02-18T09:47:00;100439.53;;;13.52;100.00
59110;BME280;44895;47.438;18.978;2023-02-18T09:50:17;100431.41;;;13.33;100.00
59110;BME280;44895;47.438;18.978;2023-02-18T09:53:22;100432.97;;;13.40;100.00
59110;BME280;44895;47.438;18.978;2023-02-18T09:56:29;100427.69;;;13.29;100.00
59110;BME280;44895;47.438;18.978;2023-02-18T09:59:34;100431.44;;;13.47;100.00
59110;BME280;44895;47.438;18.978;2023-02-18T10:02:39;100426.28;;;13.60;100.00
59110;BME280;44895;47.438;18.978;2023-02-18T10:06:11;100419.88;;;13.78;100.00
59110;BME280;44895;47.438;18.978;2023-02-18T10:12:25;100420.09;;;13.54;100.00
59110;BME280;44895;47.438;18.978;2023-02-18T10:15:31;100407.41;;;13.49;100.00
59110;BME280;44895;47.438;18.978;2023-02-18T10:18:46;100404.00;;;13.80;100.00
59110;BME280;44895;47.438;18.978;2023-02-18T10:21:52;100406.56;;;13.99;100.00
59110;BME280;44895;47.438;18.978;2023-02-18T10:24:57;100416.19;;;13.97;100.00
59110;BME280;44895;47.438;18.978;2023-02-18T10:28:03;100415.47;;;14.05;100.00
59110;BME280;44895;47.438;18.978;2023-02-18T10:31:09;100412.09;;;14.08;100.00
59110;BME280;44895;47.438;18.978;2023-02-18T10:41:10;100414.91;;;13.80;100.00
59110;BME280;44895;47.438;18.978;2023-02-18T10:44:40;100400.81;;;13.64;100.00
59110;BME280;44895;47.438;18.978;2023-02-18T10:51:11;100384.03;;;13.94;100.00
59110;BME280;44895;47.438;18.978;2023-02-18T10:54:17;100387.81;;;13.84;100.00
59110;BME280;44895;47.438;18.978;2023-02-18T10:57:26;100383.47;;;13.83;100.00
59110;BME280;44895;47.438;18.978;2023-02-18T11:00:34;100378.59;;;13.57;100.00
59110;BME280;44895;47.438;18.978;2023-02-18T11:06:50;100370.50;;;13.52;100.00
59110;BME280;44895;47.438;18.978;2023-02-18T11:09:57;100363.00;;;13.58;100.00
59110;BME280;44895;47.438;18.978;2023-02-18T11:13:06;100365.53;;;13.54;100.00
59110;BME280;44895;47.438;18.978;2023-02-18T11:16:11;100356.31;;;13.64;100.00
59110;BME280;44895;47.438;18.978;2023-02-18T11:19:37;100349.84;;;13.74;100.00
59110;BME280;44895;47.438;18.978;2023-02-18T11:22:42;100339.72;;;13.74;100.00
59110;BME280;44895;47.438;18.978;2023-02-18T11:32:14;100336.69;;;13.98;100.00
59110;BME280;44895;47.438;18.978;2023-02-18T11:35:20;100334.72;;;14.13;100.00
59110;BME280;44895;47.438;18.978;2023-02-18T11:38:37;100325.28;;;14.19;100.00
59110;BME280;44895;47.438;18.978;2023-02-18T11:44:59;100311.25;;;14.12;100.00
59110;BME280;44895;47.438;18.978;2023-02-18T11:51:38;100301.84;;;14.90;100.00
59110;BME280;44895;47.438;18.978;2023-02-18T11:54:42;100298.47;;;15.02;100.00
59110;BME280;44895;47.438;18.978;2023-02-18T11:58:03;100293.47;;;14.95;100.00
59110;BME280;44895;47.438;18.978;2023-02-18T12:04:43;100275.16;;;15.04;100.00
59110;BME280;44895;47.438;18.978;2023-02-18T12:08:01;100282.25;;;15.14;100.00
59110;BME280;44895;47.438;18.978;2023-02-18T12:11:12;100268.09;;;15.12;100.00
59110;BME280;44895;47.438;18.978;2023-02-18T12:14:22;100258.06;;;14.81;100.00
59110;BME280;44895;47.438;18.978;2023-02-18T12:17:54;100254.41;;;14.63;100.00
59110;BME280;44895;47.438;18.978;2023-02-18T12:24:38;100241.56;;;14.63;100.00
59110;BME280;44895;47.438;18.978;2023-02-18T12:44:18;100214.81;;;15.53;100.00
59110;BME280;44895;47.438;18.978;2023-02-18T13:00:48;100192.44;;;15.33;100.00
59110;BME280;44895;47.438;18.978;2023-02-18T13:10:43;100176.34;;;15.58;100.00
59110;BME280;44895;47.438;18.978;2023-02-18T13:17:01;100168.41;;;15.83;100.00
59110;BME280;44895;47.438;18.978;2023-02-18T13:20:20;100158.72;;;15.77;100.00
59110;BME280;44895;47.438;18.978;2023-02-18T13:23:29;100175.25;;;16.07;100.00
59110;BME280;44895;47.438;18.978;2023-02-18T13:26:34;100155.75;;;16.38;100.00
59110;BME280;44895;47.438;18.978;2023-02-18T13:33:15;100169.03;;;16.27;100.00
59110;BME280;44895;47.438;18.978;2023-02-18T13:39:34;100162.28;;;15.86;100.00
59110;BME280;44895;47.438;18.978;2023-02-18T13:42:38;100156.66;;;15.82;100.00
59110;BME280;44895;47.438;18.978;2023-02-18T13:45:42;100142.16;;;15.73;100.00
59110;BME280;44895;47.438;18.978;2023-02-18T13:51:56;100129.97;;;15.53;100.00
59110;BME280;44895;47.438;18.978;2023-02-18T13:55:01;100130.31;;;15.43;100.00
59110;BME280;44895;47.438;18.978;2023-02-18T13:58:35;100130.63;;;15.50;100.00
59110;BME280;44895;47.438;18.978;2023-02-18T14:01:46;100128.06;;;15.27;100.00
59110;BME280;44895;47.438;18.978;2023-02-18T14:08:13;100110.88;;;15.18;100.00
59110;BME280;44895;47.438;18.978;2023-02-18T14:17:30;100089.16;;;15.13;100.00
59110;BME280;44895;47.438;18.978;2023-02-18T14:24:02;100082.00;;;15.47;100.00
59110;BME280;44895;47.438;18.978;2023-02-18T14:27:14;100082.56;;;15.70;100.00
59110;BME280;44895;47.438;18.978;2023-02-18T14:30:24;100071.00;;;15.64;100.00
59110;BME280;44895;47.438;18.978;2023-02-18T14:33:34;100073.00;;;15.38;100.00
59110;BME280;44895;47.438;18.978;2023-02-18T14:36:48;100073.53;;;15.22;100.00
59110;BME280;44895;47.438;18.978;2023-02-18T14:43:47;100054.59;;;14.82;100.00
59110;BME280;44895;47.438;18.978;2023-02-18T14:50:02;100058.78;;;14.62;100.00
59110;BME280;44895;47.438;18.978;2023-02-18T14:53:11;100056.66;;;14.32;100.00
59110;BME280;44895;47.438;18.978;2023-02-18T14:56:21;100057.75;;;14.05;100.00
59110;BME280;44895;47.438;18.978;2023-02-18T14:59:29;100061.38;;;13.51;100.00
59110;BME280;44895;47.438;18.978;2023-02-18T15:02:36;100059.63;;;13.24;100.00
59110;BME280;44895;47.438;18.978;2023-02-18T15:05:42;100057.88;;;13.05;100.00
59110;BME280;44895;47.438;18.978;2023-02-18T15:08:47;100057.47;;;12.89;100.00
59110;BME280;44895;47.438;18.978;2023-02-18T15:12:04;100040.94;;;12.63;100.00
59110;BME280;44895;47.438;18.978;2023-02-18T15:15:13;100043.56;;;12.54;100.00
59110;BME280;44895;47.438;18.978;2023-02-18T15:18:29;100035.69;;;12.30;100.00
59110;BME280;44895;47.438;18.978;2023-02-18T15:21:42;100039.03;;;12.13;100.00
59110;BME280;44895;47.438;18.978;2023-02-18T15:24:49;100031.97;;;11.98;100.00
59110;BME280;44895;47.438;18.978;2023-02-18T15:27:53;100038.84;;;11.96;100.00
59110;BME280;44895;47.438;18.978;2023-02-18T15:30:59;100029.84;;;11.81;100.00
59110;BME280;44895;47.438;18.978;2023-02-18T15:34:37;100020.91;;;11.67;100.00
59110;BME280;44895;47.438;18.978;2023-02-18T15:37:53;100025.81;;;11.51;100.00
59110;BME280;44895;47.438;18.978;2023-02-18T15:41:00;100018.25;;;11.34;100.00
59110;BME280;44895;47.438;18.978;2023-02-18T15:44:05;100015.44;;;11.25;100.00
59110;BME280;44895;47.438;18.978;2023-02-18T15:47:10;100020.13;;;11.19;100.00
59110;BME280;44895;47.438;18.978;2023-02-18T15:50:17;100024.44;;;11.06;100.00
59110;BME280;44895;47.438;18.978;2023-02-18T15:53:24;100021.28;;;10.99;100.00
59110;BME280;44895;47.438;18.978;2023-02-18T15:56:32;100025.28;;;10.88;100.00
59110;BME280;44895;47.438;18.978;2023-02-18T15:59:44;100015.09;;;10.80;100.00
59110;BME280;44895;47.438;18.978;2023-02-18T16:03:43;100022.50;;;10.74;100.00
59110;BME280;44895;47.438;18.978;2023-02-18T16:06:29;100002.06;;;10.63;100.00
59110;BME280;44895;47.438;18.978;2023-02-18T16:09:34;100009.41;;;10.62;100.00
59110;BME280;44895;47.438;18.978;2023-02-18T16:12:45;100012.06;;;10.48;100.00
59110;BME280;44895;47.438;18.978;2023-02-18T16:15:53;100004.88;;;10.38;100.00
59110;BME280;44895;47.438;18.978;2023-02-18T16:18:56;100008.53;;;10.28;100.00
59110;BME280;44895;47.438;18.978;2023-02-18T16:22:06;100018.34;;;10.24;100.00
59110;BME280;44895;47.438;18.978;2023-02-18T16:25:48;100021.34;;;10.23;100.00
59110;BME280;44895;47.438;18.978;2023-02-18T16:28:52;100009.25;;;10.15;100.00
59110;BME280;44895;47.438;18.978;2023-02-18T16:31:56;100011.06;;;10.01;100.00
59110;BME280;44895;47.438;18.978;2023-02-18T16:35:00;100017.00;;;10.03;100.00
59110;BME280;44895;47.438;18.978;2023-02-18T16:38:06;100011.28;;;10.04;100.00
59110;BME280;44895;47.438;18.978;2023-02-18T16:41:13;100006.50;;;9.96;100.00
59110;BME280;44895;47.438;18.978;2023-02-18T16:44:18;100008.56;;;10.04;100.00
59110;BME280;44895;47.438;18.978;2023-02-18T16:47:23;100005.84;;;10.04;100.00
59110;BME280;44895;47.438;18.978;2023-02-18T16:50:29;100011.19;;;9.90;100.00
59110;BME280;44895;47.438;18.978;2023-02-18T16:53:33;100016.50;;;9.76;100.00
59110;BME280;44895;47.438;18.978;2023-02-18T16:56:38;100009.06;;;9.87;100.00
59110;BME280;44895;47.438;18.978;2023-02-18T16:59:42;100001.66;;;9.93;100.00
59110;BME280;44895;47.438;18.978;2023-02-18T17:02:49;100010.88;;;9.73;100.00
59110;BME280;44895;47.438;18.978;2023-02-18T17:05:54;100011.19;;;9.66;100.00
59110;BME280;44895;47.438;18.978;2023-02-18T17:08:58;100020.47;;;9.60;100.00
59110;BME280;44895;47.438;18.978;2023-02-18T17:12:02;100022.28;;;9.45;100.00
59110;BME280;44895;47.438;18.978;2023-02-18T17:15:20;100032.41;;;9.35;100.00
59110;BME280;44895;47.438;18.978;2023-02-18T17:18:26;100036.44;;;9.08;100.00
59110;BME280;44895;47.438;18.978;2023-02-18T17:21:30;100039.53;;;8.96;100.00
59110;BME280;44895;47.438;18.978;2023-02-18T17:24:40;100036.50;;;9.32;100.00
59110;BME280;44895;47.438;18.978;2023-02-18T17:27:43;100043.44;;;9.43;100.00
59110;BME280;44895;47.438;18.978;2023-02-18T17:30:52;100051.19;;;9.26;100.00
59110;BME280;44895;47.438;18.978;2023-02-18T17:34:02;100044.41;;;9.28;100.00
59110;BME280;44895;47.438;18.978;2023-02-18T17:37:11;100033.44;;;9.09;100.00
59110;BME280;44895;47.438;18.978;2023-02-18T17:40:20;100027.00;;;8.71;100.00
59110;BME280;44895;47.438;18.978;2023-02-18T17:43:25;100044.13;;;8.61;100.00
59110;BME280;44895;47.438;18.978;2023-02-18T17:46:29;100036.63;;;8.53;100.00
59110;BME280;44895;47.438;18.978;2023-02-18T17:49:33;100026.09;;;8.46;100.00
59110;BME280;44895;47.438;18.978;2023-02-18T17:52:37;100029.91;;;8.35;100.00
59110;BME280;44895;47.438;18.978;2023-02-18T17:55:44;100024.69;;;8.04;100.00
59110;BME280;44895;47.438;18.978;2023-02-18T17:58:48;100010.16;;;7.89;100.00
59110;BME280;44895;47.438;18.978;2023-02-18T18:01:52;100023.66;;;7.84;100.00
59110;BME280;44895;47.438;18.978;2023-02-18T18:04:56;100021.75;;;7.90;100.00
59110;BME280;44895;47.438;18.978;2023-02-18T18:08:02;100030.66;;;7.95;100.00
59110;BME280;44895;47.438;18.978;2023-02-18T18:11:12;100040.19;;;7.77;100.00
59110;BME280;44895;47.438;18.978;2023-02-18T18:14:17;100032.47;;;7.29;100.00
59110;BME280;44895;47.438;18.978;2023-02-18T18:17:22;100037.25;;;7.68;100.00